Terminal Aerodrome Forecast
Issued by NWS Charleston, WV

Current Version | Previous Version | Graphics & Text | Print | Product List | Glossary On
Versions: 1 2 3 4 5 6 7 8 9 10 11 12 13 14 15 16 17 18 19 20 21 22 23 24 25 26 27 28
717
FTUS41 KRLX 250241 AAA
TAFHTS
TAF AMD
KHTS 250241Z 2503/2524 21006KT P6SM SKC
     FM250700 22012G20KT 4SM -SHRA BR VCTS OVC060CB
      TEMPO 2508/2509 22014G40KT 2SM +TSRA OVC025CB
     FM251000 25011G18KT 6SM -SHRA OVC030
     FM251100 25006KT P6SM BKN050
     FM251200 26012G24KT P6SM OVC050=

USA.gov is the U.S. government's official web portal to all federal, state and local government web resources and services.